Terminal Aerodrome Forecast
Issued by NWS Louisville, KY

Home | Current Version | Previous Version | Text Only | Print | Product List | Glossary On
Versions: 1 2 3 4 5 6 7 8 9 10 11 12 13 14 15 16 17 18 19
000
FTUS43 KLMK 261000 AAA
TAFBWG
TAF AMD
KBWG 261006Z 2610/2706 VRB04KT 6SM BR SKC
      TEMPO 2610/2614 3SM BR
     FM261500 19009KT P6SM FEW250
     FM262300 VRB03KT P6SM SCT200=

USA.gov is the U.S. government's official web portal to all federal, state and local government web resources and services.